UAL2420 KCOS-KDEN
Flight info
| Callsign | UAL2420 |
|---|---|
| Flight time | 0h 18m |
| Altitude | 13000 |
| Route | ADANE V389 LUFSE JEFEL FQF |
| Aircraft | A320/M-SDE3FGHIRWY/LB1 |
Departure
| Time | 2026-05-06 02:38 |
|---|---|
| Airport | City of Colorado Springs Municipal Airport (KCOS) |
Arrival
| Time | 2026-05-06 02:57 |
|---|---|
| Airport | Denver International Airport (KDEN) |
| Time | Latitude | Longitude | Altitude | Speed | Heading |
|---|---|---|---|---|---|
| 2026-05-06 02:18 | 38.80000 | -104.70079 | 6146 ft | 0 kts | 185° |
| 2026-05-06 02:28 | 38.80004 | -104.70079 | 6146 ft | 2 kts | 185° |
| 2026-05-06 02:28 | 38.80023 | -104.70076 | 6147 ft | 3 kts | 185° |
| 2026-05-06 02:29 | 38.80043 | -104.70074 | 6147 ft | 3 kts | 185° |
| 2026-05-06 02:29 | 38.80064 | -104.70072 | 6148 ft | 3 kts | 185° |
| 2026-05-06 02:30 | 38.80058 | -104.70071 | 6148 ft | 5 kts | 172° |
| 2026-05-06 02:30 | 38.80041 | -104.70047 | 6147 ft | 7 kts | 118° |
| 2026-05-06 02:31 | 38.80036 | -104.69958 | 6147 ft | 10 kts | 86° |
| 2026-05-06 02:31 | 38.80042 | -104.69857 | 6147 ft | 13 kts | 85° |
| 2026-05-06 02:31 | 38.80088 | -104.69725 | 6148 ft | 14 kts | 24° |
| 2026-05-06 02:31 | 38.80186 | -104.69727 | 6150 ft | 14 kts | 359° |
| 2026-05-06 02:32 | 38.80256 | -104.69721 | 6151 ft | 16 kts | 4° |
| 2026-05-06 02:32 | 38.80361 | -104.69629 | 6153 ft | 15 kts | 90° |
| 2026-05-06 02:32 | 38.80359 | -104.69539 | 6153 ft | 15 kts | 90° |
| 2026-05-06 02:32 | 38.80359 | -104.69405 | 6153 ft | 15 kts | 91° |
| 2026-05-06 02:33 | 38.80358 | -104.69263 | 6153 ft | 18 kts | 90° |
| 2026-05-06 02:33 | 38.80357 | -104.69151 | 6153 ft | 19 kts | 91° |
| 2026-05-06 02:34 | 38.80211 | -104.68791 | 6150 ft | 18 kts | 179° |
| 2026-05-06 02:34 | 38.80096 | -104.68790 | 6148 ft | 6 kts | 181° |
| 2026-05-06 02:34 | 38.80081 | -104.68801 | 6148 ft | 1 kts | 274° |
| 2026-05-06 02:34 | 38.80147 | -104.68788 | 6149 ft | 20 kts | 6° |
| 2026-05-06 02:35 | 38.80289 | -104.68784 | 6152 ft | 21 kts | 0° |
| 2026-05-06 02:35 | 38.80466 | -104.68788 | 6154 ft | 29 kts | 359° |
| 2026-05-06 02:35 | 38.80658 | -104.68786 | 6158 ft | 25 kts | 1° |
| 2026-05-06 02:35 | 38.80820 | -104.68785 | 6160 ft | 21 kts | 360° |
| 2026-05-06 02:36 | 38.80977 | -104.68786 | 6163 ft | 27 kts | 359° |
| 2026-05-06 02:36 | 38.81156 | -104.68788 | 6166 ft | 24 kts | 0° |
| 2026-05-06 02:36 | 38.81307 | -104.68785 | 6168 ft | 20 kts | 1° |
| 2026-05-06 02:36 | 38.81437 | -104.68783 | 6171 ft | 17 kts | 0° |
| 2026-05-06 02:37 | 38.81544 | -104.68782 | 6173 ft | 13 kts | 2° |
| 2026-05-06 02:37 | 38.81599 | -104.68733 | 6176 ft | 9 kts | 75° |
| 2026-05-06 02:37 | 38.81598 | -104.68652 | 6173 ft | 11 kts | 92° |
| 2026-05-06 02:37 | 38.81556 | -104.68575 | 6176 ft | 13 kts | 175° |
| 2026-05-06 02:38 | 38.81324 | -104.68574 | 6171 ft | 69 kts | 179° |
| 2026-05-06 02:38 | 38.80598 | -104.68576 | 6157 ft | 135 kts | 180° |
| 2026-05-06 02:38 | 38.79476 | -104.68578 | 6198 ft | 180 kts | 179° |
| 2026-05-06 02:38 | 38.78245 | -104.68556 | 6952 ft | 178 kts | 176° |
| 2026-05-06 02:39 | 38.76994 | -104.68439 | 7496 ft | 183 kts | 175° |
| 2026-05-06 02:39 | 38.75711 | -104.68318 | 7955 ft | 190 kts | 178° |
| 2026-05-06 02:39 | 38.74316 | -104.68294 | 8114 ft | 209 kts | 180° |
| 2026-05-06 02:39 | 38.72790 | -104.68301 | 8358 ft | 234 kts | 179° |
| 2026-05-06 02:40 | 38.71116 | -104.67792 | 8837 ft | 260 kts | 152° |
| 2026-05-06 02:40 | 38.69746 | -104.66207 | 9446 ft | 280 kts | 124° |
| 2026-05-06 02:40 | 38.69043 | -104.63836 | 10221 ft | 295 kts | 101° |
| 2026-05-06 02:40 | 38.69002 | -104.61097 | 10412 ft | 321 kts | 88° |
| 2026-05-06 02:41 | 38.69156 | -104.58156 | 10627 ft | 341 kts | 86° |
| 2026-05-06 02:41 | 38.69632 | -104.55137 | 11123 ft | 352 kts | 69° |
| 2026-05-06 02:41 | 38.70912 | -104.52464 | 11698 ft | 357 kts | 46° |
| 2026-05-06 02:41 | 38.72882 | -104.50534 | 12291 ft | 359 kts | 24° |
| 2026-05-06 02:42 | 38.75165 | -104.49196 | 12839 ft | 363 kts | 21° |
| 2026-05-06 02:42 | 38.77477 | -104.47885 | 12990 ft | 364 kts | 20° |
| 2026-05-06 02:42 | 38.79841 | -104.46558 | 13027 ft | 374 kts | 20° |
| 2026-05-06 02:42 | 38.82230 | -104.45216 | 13026 ft | 376 kts | 20° |
| 2026-05-06 02:43 | 38.84627 | -104.43869 | 13029 ft | 376 kts | 21° |
| 2026-05-06 02:43 | 38.87020 | -104.42513 | 13028 ft | 376 kts | 21° |
| 2026-05-06 02:43 | 38.89411 | -104.41156 | 13029 ft | 375 kts | 19° |
| 2026-05-06 02:43 | 38.91888 | -104.40149 | 13034 ft | 370 kts | 8° |
| 2026-05-06 02:44 | 38.94427 | -104.39750 | 13025 ft | 365 kts | 358° |
| 2026-05-06 02:44 | 38.96961 | -104.39643 | 13025 ft | 365 kts | 358° |
| 2026-05-06 02:44 | 38.99498 | -104.39526 | 13025 ft | 365 kts | 358° |
| 2026-05-06 02:44 | 39.02034 | -104.39400 | 13024 ft | 365 kts | 359° |
| 2026-05-06 02:45 | 39.04579 | -104.39272 | 13022 ft | 365 kts | 359° |
| 2026-05-06 02:45 | 39.07117 | -104.39145 | 13020 ft | 365 kts | 358° |
| 2026-05-06 02:45 | 39.09621 | -104.39022 | 13020 ft | 365 kts | 358° |
| 2026-05-06 02:45 | 39.12189 | -104.38895 | 13017 ft | 365 kts | 359° |
| 2026-05-06 02:46 | 39.14728 | -104.38765 | 13024 ft | 365 kts | 359° |
| 2026-05-06 02:46 | 39.17271 | -104.38635 | 13013 ft | 366 kts | 359° |
| 2026-05-06 02:46 | 39.19807 | -104.38244 | 13003 ft | 369 kts | 9° |
| 2026-05-06 02:46 | 39.22256 | -104.37196 | 12996 ft | 373 kts | 21° |
| 2026-05-06 02:47 | 39.24508 | -104.35518 | 12986 ft | 377 kts | 33° |
| 2026-05-06 02:47 | 39.26598 | -104.33555 | 12982 ft | 377 kts | 34° |
| 2026-05-06 02:47 | 39.28725 | -104.31551 | 12983 ft | 378 kts | 34° |
| 2026-05-06 02:47 | 39.30852 | -104.29570 | 12983 ft | 377 kts | 31° |
| 2026-05-06 02:48 | 39.33198 | -104.28132 | 12991 ft | 367 kts | 12° |
| 2026-05-06 02:48 | 39.35663 | -104.27818 | 12987 ft | 352 kts | 350° |
| 2026-05-06 02:48 | 39.37971 | -104.28666 | 12991 ft | 341 kts | 330° |
| 2026-05-06 02:48 | 39.40052 | -104.30108 | 12988 ft | 338 kts | 327° |
| 2026-05-06 02:49 | 39.42102 | -104.31607 | 12993 ft | 338 kts | 327° |
| 2026-05-06 02:49 | 39.44147 | -104.33106 | 12990 ft | 337 kts | 327° |
| 2026-05-06 02:49 | 39.46190 | -104.34602 | 12993 ft | 338 kts | 327° |
| 2026-05-06 02:49 | 39.48170 | -104.36211 | 12980 ft | 334 kts | 316° |
| 2026-05-06 02:50 | 39.49712 | -104.38322 | 12936 ft | 318 kts | 308° |
| 2026-05-06 02:50 | 39.51129 | -104.40508 | 12419 ft | 318 kts | 307° |
| 2026-05-06 02:50 | 39.52539 | -104.42727 | 11846 ft | 320 kts | 307° |
| 2026-05-06 02:50 | 39.53949 | -104.44970 | 11290 ft | 319 kts | 307° |
| 2026-05-06 02:51 | 39.55335 | -104.47170 | 10742 ft | 311 kts | 307° |
| 2026-05-06 02:51 | 39.56463 | -104.49520 | 10220 ft | 305 kts | 287° |
| 2026-05-06 02:51 | 39.56796 | -104.52179 | 9664 ft | 296 kts | 270° |
| 2026-05-06 02:51 | 39.56812 | -104.54821 | 9089 ft | 292 kts | 269° |
| 2026-05-06 02:52 | 39.56786 | -104.57437 | 8512 ft | 289 kts | 267° |
| 2026-05-06 02:52 | 39.56740 | -104.60028 | 8084 ft | 292 kts | 271° |
| 2026-05-06 02:52 | 39.57180 | -104.62526 | 8003 ft | 280 kts | 298° |
| 2026-05-06 02:52 | 39.58392 | -104.64412 | 8021 ft | 272 kts | 322° |
| 2026-05-06 02:53 | 39.59908 | -104.65847 | 8019 ft | 269 kts | 326° |
| 2026-05-06 02:53 | 39.61496 | -104.67121 | 8015 ft | 268 kts | 341° |
| 2026-05-06 02:53 | 39.63375 | -104.67333 | 8030 ft | 289 kts | 15° |
| 2026-05-06 02:53 | 39.65327 | -104.66293 | 8024 ft | 319 kts | 26° |
| 2026-05-06 02:54 | 39.67431 | -104.65576 | 8027 ft | 306 kts | 1° |
| 2026-05-06 02:54 | 39.69406 | -104.66050 | 8030 ft | 272 kts | 347° |
| 2026-05-06 02:54 | 39.71175 | -104.66297 | 7819 ft | 242 kts | 4° |
| 2026-05-06 02:54 | 39.72796 | -104.66214 | 7520 ft | 223 kts | 4° |
| 2026-05-06 02:55 | 39.74291 | -104.66165 | 7246 ft | 203 kts | 3° |
| 2026-05-06 02:55 | 39.75635 | -104.66145 | 6990 ft | 182 kts | 3° |
| 2026-05-06 02:55 | 39.76863 | -104.66129 | 6791 ft | 171 kts | 4° |
| 2026-05-06 02:55 | 39.78038 | -104.66114 | 6560 ft | 167 kts | 4° |
| 2026-05-06 02:56 | 39.79184 | -104.66100 | 6283 ft | 162 kts | 2° |
| 2026-05-06 02:56 | 39.80300 | -104.66086 | 6027 ft | 158 kts | 1° |
| 2026-05-06 02:56 | 39.81380 | -104.66073 | 5784 ft | 152 kts | 0° |
| 2026-05-06 02:56 | 39.82423 | -104.66061 | 5584 ft | 147 kts | 360° |
| 2026-05-06 02:57 | 39.83370 | -104.66051 | 5438 ft | 125 kts | 1° |
| 2026-05-06 02:57 | 39.84030 | -104.66041 | 5421 ft | 55 kts | 1° |
| 2026-05-06 02:57 | 39.84283 | -104.66033 | 5414 ft | 37 kts | 1° |
| 2026-05-06 02:57 | 39.84540 | -104.66037 | 5410 ft | 36 kts | 359° |
| 2026-05-06 02:58 | 39.84790 | -104.66080 | 5408 ft | 37 kts | 340° |
| 2026-05-06 02:58 | 39.84936 | -104.66185 | 5401 ft | 18 kts | 328° |
| 2026-05-06 02:58 | 39.85069 | -104.66237 | 5399 ft | 22 kts | 358° |
| 2026-05-06 02:58 | 39.85232 | -104.66241 | 5393 ft | 25 kts | 360° |
| 2026-05-06 02:59 | 39.85409 | -104.66236 | 5391 ft | 26 kts | 2° |
| 2026-05-06 02:59 | 39.85591 | -104.66238 | 5394 ft | 27 kts | 359° |
| 2026-05-06 02:59 | 39.85793 | -104.66236 | 5388 ft | 30 kts | 1° |
| 2026-05-06 02:59 | 39.85982 | -104.66235 | 5387 ft | 17 kts | 346° |
| 2026-05-06 03:00 | 39.86017 | -104.66350 | 5384 ft | 16 kts | 270° |
| 2026-05-06 03:00 | 39.86025 | -104.66511 | 5377 ft | 19 kts | 284° |
| 2026-05-06 03:00 | 39.86066 | -104.66679 | 5377 ft | 20 kts | 268° |
| 2026-05-06 03:00 | 39.86062 | -104.66866 | 5376 ft | 21 kts | 270° |
| 2026-05-06 03:01 | 39.86052 | -104.67025 | 5378 ft | 9 kts | 240° |
| 2026-05-06 03:01 | 39.86007 | -104.67045 | 5379 ft | 4 kts | 198° |
| 2026-05-06 03:01 | 39.85994 | -104.67043 | 5375 ft | 2 kts | 171° |
| 2026-05-06 03:01 | 39.85978 | -104.67040 | 5378 ft | 4 kts | 173° |
| 2026-05-06 03:02 | 39.85946 | -104.67039 | 5378 ft | 2 kts | 180° |
| 2026-05-06 03:02 | 39.85934 | -104.67039 | 5377 ft | 1 kts | 180° |
| 2026-05-06 03:02 | 39.85933 | -104.67039 | 5377 ft | 0 kts | 179° |